Time;durP1;ratioP1;P1;durP2;ratioP2;P2;SDS_P1;SDS_P2;PMS_P1;PMS_P2;Temp;Humidity;BMP_temperature;BMP_pressure;BME280_temperature;BME280_humidity;BME280_pressure;Samples;Min_cycle;Max_cycle;Signal;HPM_P1;HPM_P2
2022/04/15 00:01:34;;;;;;;3.53;2.30;;;17.40;65.10;;;;;;10459488;28;20094;-48
2022/04/15 00:06:35;;;;;;;3.15;2.20;;;17.40;65.10;;;;;;10459444;28;20430;-48
2022/04/15 00:11:37;;;;;;;4.38;1.90;;;17.30;65.00;;;;;;10459212;28;20572;-47
2022/04/15 00:16:38;;;;;;;4.10;2.13;;;17.30;64.90;;;;;;10459162;28;20462;-49
2022/04/15 00:21:38;;;;;;;3.28;2.38;;;17.30;64.90;;;;;;10459251;28;20107;-48
2022/04/15 00:26:39;;;;;;;3.53;1.77;;;17.30;65.00;;;;;;10457084;28;20123;-47
2022/04/15 00:31:40;;;;;;;4.20;2.22;;;17.30;64.90;;;;;;10456460;28;20264;-49
2022/04/15 00:36:40;;;;;;;4.90;2.08;;;17.30;64.90;;;;;;10456712;28;20076;-49
2022/04/15 00:41:43;;;;;;;3.13;2.20;;;17.30;64.90;;;;;;10456302;28;20561;-49
2022/04/15 00:46:43;;;;;;;3.00;2.05;;;17.30;64.90;;;;;;10456165;28;20113;-47
2022/04/15 00:51:45;;;;;;;3.60;2.33;;;17.30;64.80;;;;;;10455702;28;20044;-47
2022/04/15 00:56:49;;;;;;;3.42;1.90;;;17.30;64.80;;;;;;10454592;28;20075;-48
2022/04/15 01:01:51;;;;;;;3.38;1.80;;;17.30;64.80;;;;;;10452975;28;20033;-47
2022/04/15 01:06:54;;;;;;;3.38;1.80;;;17.30;64.80;;;;;;10453738;28;20112;-47
2022/04/15 01:11:55;;;;;;;3.83;2.17;;;17.30;64.80;;;;;;10470320;28;20045;-48
2022/04/15 01:16:56;;;;;;;3.60;2.40;;;17.30;64.90;;;;;;10454060;28;20037;-48
2022/04/15 01:22:02;;;;;;;2.58;1.92;;;17.20;64.80;;;;;;10465138;28;20028;-48
2022/04/15 01:27:03;;;;;;;2.90;1.73;;;17.20;64.70;;;;;;10454985;28;20033;-48
2022/04/15 01:32:08;;;;;;;2.92;1.70;;;17.20;64.80;;;;;;10454388;28;20053;-47
2022/04/15 01:37:09;;;;;;;2.70;1.77;;;17.20;65.00;;;;;;10454087;28;20551;-47
2022/04/15 01:42:14;;;;;;;3.78;2.00;;;17.30;64.90;;;;;;10454052;28;20159;-48
2022/04/15 01:47:18;;;;;;;4.13;1.83;;;17.30;64.60;;;;;;10454474;28;20055;-48
2022/04/15 01:52:19;;;;;;;2.05;1.40;;;17.30;64.50;;;;;;10453635;28;20072;-48
2022/04/15 01:57:19;;;;;;;3.45;1.77;;;17.30;64.50;;;;;;10454129;28;20029;-47
2022/04/15 02:02:20;;;;;;;2.15;1.52;;;17.30;64.50;;;;;;10453034;28;20090;-47
2022/04/15 02:07:21;;;;;;;2.92;1.75;;;17.30;64.50;;;;;;10453822;28;20538;-47
2022/04/15 02:12:21;;;;;;;3.42;1.92;;;17.30;64.60;;;;;;10434268;28;20107;-48
2022/04/15 02:17:22;;;;;;;3.63;2.00;;;17.30;64.70;;;;;;10452967;28;20516;-49
2022/04/15 02:22:23;;;;;;;2.25;1.75;;;17.20;64.70;;;;;;10463712;28;20104;-48
2022/04/15 02:27:23;;;;;;;2.60;1.77;;;17.20;64.80;;;;;;10452686;28;20021;-48
2022/04/15 02:32:24;;;;;;;4.93;1.88;;;17.20;64.80;;;;;;10452701;28;20119;-48
2022/04/15 02:37:25;;;;;;;3.22;2.17;;;17.20;64.80;;;;;;10451740;28;20029;-48
2022/04/15 02:42:27;;;;;;;4.10;1.50;;;17.20;64.80;;;;;;10468522;28;20100;-47
2022/04/15 02:47:29;;;;;;;2.47;1.80;;;17.20;64.70;;;;;;10452625;28;20060;-49
2022/04/15 02:52:32;;;;;;;3.20;2.10;;;17.20;64.80;;;;;;10465857;28;20083;-50
2022/04/15 02:57:32;;;;;;;2.10;1.58;;;17.20;64.60;;;;;;10450400;28;20025;-47
2022/04/15 03:02:34;;;;;;;3.10;1.55;;;17.30;64.50;;;;;;10451806;28;20068;-48
2022/04/15 03:07:38;;;;;;;2.50;1.80;;;17.20;64.40;;;;;;10451683;28;20044;-47
2022/04/15 03:12:41;;;;;;;3.05;2.03;;;17.20;64.40;;;;;;10451774;28;20028;-49
2022/04/15 03:17:42;;;;;;;2.40;1.70;;;17.30;64.50;;;;;;10451369;28;20065;-48
2022/04/15 03:22:44;;;;;;;4.78;1.70;;;17.20;64.40;;;;;;10464017;28;20028;-49
2022/04/15 03:27:46;;;;;;;2.92;1.52;;;17.20;64.50;;;;;;10458920;28;20455;-47
2022/04/15 03:32:48;;;;;;;2.70;2.20;;;17.20;64.50;;;;;;10459224;28;20045;-47
2022/04/15 03:37:51;;;;;;;1.85;1.33;;;17.20;64.60;;;;;;10458683;28;20033;-47
2022/04/15 03:42:59;;;;;;;2.72;1.92;;;17.20;64.70;;;;;;10458692;28;20033;-47
2022/04/15 03:47:59;;;;;;;3.58;1.92;;;17.10;64.90;;;;;;10458640;28;20917;-49
2022/04/15 03:53:00;;;;;;;2.03;1.38;;;17.10;64.70;;;;;;10457782;28;20056;-48
2022/04/15 03:58:01;;;;;;;3.38;1.90;;;17.10;64.80;;;;;;10458111;28;20477;-46
2022/04/15 04:03:01;;;;;;;1.70;1.10;;;17.10;64.90;;;;;;10456869;28;20114;-48
2022/04/15 04:08:02;;;;;;;2.25;1.60;;;17.20;64.40;;;;;;10458067;28;20036;-50
2022/04/15 04:13:04;;;;;;;1.98;1.40;;;17.20;64.20;;;;;;10470483;28;20025;-47
2022/04/15 04:18:04;;;;;;;4.07;1.77;;;17.20;64.20;;;;;;10455137;28;20132;-47
2022/04/15 04:23:05;;;;;;;3.28;1.65;;;17.20;64.30;;;;;;10458572;28;20035;-46
2022/04/15 04:28:06;;;;;;;2.45;1.73;;;17.20;64.40;;;;;;10457681;28;20056;-49
2022/04/15 04:33:07;;;;;;;2.30;1.80;;;17.20;64.40;;;;;;10456433;28;20040;-47
2022/04/15 04:38:07;;;;;;;3.17;1.95;;;17.20;64.40;;;;;;10474995;28;20390;-48
2022/04/15 04:43:09;;;;;;;5.25;2.25;;;17.10;65.10;;;;;;10462937;28;20492;-48
2022/04/15 04:48:10;;;;;;;11.68;3.00;;;17.20;65.10;;;;;;10456348;28;20072;-47
2022/04/15 04:53:11;;;;;;;9.57;2.17;;;17.30;65.20;;;;;;10455506;28;20020;-48
2022/04/15 04:58:11;;;;;;;7.15;3.13;;;17.30;66.00;;;;;;10456934;28;20060;-50
2022/04/15 05:03:12;;;;;;;10.35;3.00;;;17.40;65.60;;;;;;10451581;28;20096;-52
2022/04/15 05:08:12;;;;;;;19.17;3.83;;;17.50;65.70;;;;;;10449330;28;20108;-49
2022/04/15 05:13:13;;;;;;;10.38;3.38;;;17.40;65.80;;;;;;10471204;28;20064;-50
2022/04/15 05:18:14;;;;;;;10.73;3.97;;;17.30;65.70;;;;;;10484854;28;20020;-51
2022/04/15 05:23:15;;;;;;;10.32;3.70;;;17.20;65.90;;;;;;10474737;28;20076;-53
2022/04/15 05:28:16;;;;;;;5.47;2.50;;;17.20;65.80;;;;;;10467763;28;20033;-53
2022/04/15 05:33:16;;;;;;;5.47;2.72;;;17.20;65.70;;;;;;10448410;28;20465;-51
2022/04/15 05:38:18;;;;;;;4.95;2.47;;;17.10;65.60;;;;;;10441322;28;20549;-50
2022/04/15 05:43:19;;;;;;;10.00;3.03;;;17.10;65.40;;;;;;10454731;28;20473;-53
2022/04/15 05:48:19;;;;;;;6.88;2.47;;;17.10;65.60;;;;;;10474049;28;20067;-52
2022/04/15 05:53:20;;;;;;;8.02;2.90;;;17.10;65.60;;;;;;10457116;28;20104;-53
2022/04/15 05:58:21;;;;;;;5.93;2.15;;;17.10;65.40;;;;;;10453561;28;20029;-54
2022/04/15 06:03:22;;;;;;;9.70;2.20;;;17.10;65.40;;;;;;10454273;28;20053;-54
2022/04/15 06:08:22;;;;;;;4.82;2.55;;;17.10;65.50;;;;;;10454410;28;20107;-50
2022/04/15 06:13:25;;;;;;;6.70;2.67;;;17.10;65.40;;;;;;10454293;28;20116;-55
2022/04/15 06:18:34;;;;;;;9.23;2.47;;;17.00;65.30;;;;;;10452646;28;20017;-54
2022/04/15 06:23:35;;;;;;;6.07;2.63;;;17.10;65.30;;;;;;10464728;28;20061;-54
2022/04/15 06:28:35;;;;;;;6.47;2.22;;;17.00;65.30;;;;;;10453585;28;20080;-53
2022/04/15 06:33:37;;;;;;;4.28;2.05;;;17.10;65.20;;;;;;10453672;28;20064;-53
2022/04/15 06:38:37;;;;;;;7.95;3.38;;;17.10;64.90;;;;;;10452402;28;20027;-53
2022/04/15 06:43:39;;;;;;;5.10;2.22;;;17.10;64.90;;;;;;10453557;28;20064;-53
2022/04/15 06:48:39;;;;;;;4.22;2.10;;;17.10;64.90;;;;;;10453568;28;20079;-55
2022/04/15 06:53:40;;;;;;;5.18;2.10;;;17.10;64.90;;;;;;10453194;28;20116;-54
2022/04/15 06:58:41;;;;;;;3.28;2.17;;;17.10;64.90;;;;;;10457886;28;20059;-54
2022/04/15 07:03:42;;;;;;;5.95;2.58;;;17.10;65.00;;;;;;10461667;28;20458;-53
2022/04/15 07:08:42;;;;;;;3.13;2.45;;;17.00;65.00;;;;;;10461439;28;20137;-54
2022/04/15 07:13:43;;;;;;;4.72;2.00;;;17.10;65.00;;;;;;10461063;28;20029;-54
2022/04/15 07:18:44;;;;;;;5.28;1.88;;;17.10;65.00;;;;;;10460899;28;20033;-55
2022/04/15 07:23:45;;;;;;;7.57;2.55;;;17.10;65.00;;;;;;10471381;28;20060;-53
2022/04/15 07:28:45;;;;;;;2.45;2.20;;;17.00;65.00;;;;;;10460178;28;20055;-53
2022/04/15 07:33:46;;;;;;;2.28;1.75;;;17.00;65.00;;;;;;10458891;28;20033;-54
2022/04/15 07:38:47;;;;;;;4.20;2.45;;;17.00;65.00;;;;;;10458649;28;20155;-54
2022/04/15 07:43:48;;;;;;;3.17;2.00;;;17.00;65.10;;;;;;10460436;28;20109;-52
2022/04/15 07:48:49;;;;;;;2.40;1.60;;;17.00;65.10;;;;;;10458044;28;20029;-54
2022/04/15 07:53:50;;;;;;;3.10;1.63;;;17.00;65.00;;;;;;10459645;28;20026;-55
2022/04/15 07:58:51;;;;;;;2.17;1.50;;;17.00;65.00;;;;;;10459492;28;20071;-54
2022/04/15 08:03:51;;;;;;;3.38;1.73;;;17.00;65.10;;;;;;10474492;28;20057;-53
2022/04/15 08:08:54;;;;;;;3.63;2.08;;;16.90;65.10;;;;;;10458314;28;20115;-54
2022/04/15 08:13:58;;;;;;;2.78;1.63;;;16.90;65.10;;;;;;10458644;28;20032;-50
2022/04/15 08:18:59;;;;;;;2.55;1.83;;;16.90;65.10;;;;;;10458574;28;20025;-53
2022/04/15 08:24:01;;;;;;;2.67;1.70;;;16.90;65.10;;;;;;10468775;28;20158;-54
2022/04/15 08:29:02;;;;;;;2.25;1.48;;;16.90;65.20;;;;;;10456905;28;20116;-53
2022/04/15 08:34:03;;;;;;;2.65;1.52;;;16.90;65.10;;;;;;10457803;28;20025;-54
2022/04/15 08:39:05;;;;;;;3.15;2.15;;;16.90;65.20;;;;;;10457735;28;20438;-55
2022/04/15 08:44:06;;;;;;;3.42;1.58;;;16.90;65.10;;;;;;10457936;28;20029;-54
2022/04/15 08:49:08;;;;;;;2.10;1.50;;;16.90;65.10;;;;;;10457180;28;20033;-55
2022/04/15 08:54:09;;;;;;;2.00;1.45;;;16.90;64.90;;;;;;10455909;28;20477;-53
2022/04/15 08:59:10;;;;;;;3.45;1.95;;;17.00;64.80;;;;;;10456952;28;20031;-52
2022/04/15 09:04:11;;;;;;;1.95;1.25;;;17.00;64.70;;;;;;10455694;28;20033;-55
2022/04/15 09:09:13;;;;;;;2.70;1.55;;;17.00;64.70;;;;;;10456531;28;20044;-54
2022/04/15 09:14:15;;;;;;;2.72;1.52;;;17.00;64.70;;;;;;10456278;28;20373;-56
2022/04/15 09:19:17;;;;;;;2.03;1.30;;;17.00;64.50;;;;;;10455058;28;20025;-53
2022/04/15 09:24:34;;;;;;;2.28;1.40;;;17.00;64.60;;;;;;10482194;28;20067;-54
2022/04/15 09:29:38;;;;;;;4.20;1.60;;;17.00;64.60;;;;;;10455346;28;20089;-53
2022/04/15 09:35:05;;;;;;;1.85;1.65;;;17.00;64.70;;;;;;10455998;28;20060;-54
2022/04/15 09:40:14;;;;;;;2.08;1.30;;;17.00;64.60;;;;;;10455271;28;20037;-53
2022/04/15 09:45:20;;;;;;;1.97;1.27;;;16.90;64.50;;;;;;10455730;28;20107;-55
2022/04/15 09:50:32;;;;;;;2.08;1.63;;;17.00;64.70;;;;;;10455032;28;20056;-52
2022/04/15 09:55:33;;;;;;;2.58;1.40;;;16.90;64.70;;;;;;10454906;28;20064;-54
2022/04/15 10:00:36;;;;;;;2.92;1.52;;;16.90;64.70;;;;;;10454638;28;20021;-55
2022/04/15 10:05:38;;;;;;;2.60;1.50;;;16.90;64.80;;;;;;10453245;28;20043;-56
2022/04/15 10:10:40;;;;;;;2.80;1.50;;;16.90;64.80;;;;;;10452911;28;20024;-54
2022/04/15 10:15:43;;;;;;;1.83;1.10;;;16.90;64.90;;;;;;10452891;28;20047;-55
2022/04/15 10:20:44;;;;;;;2.35;1.42;;;16.90;65.00;;;;;;10454702;28;20063;-54
2022/04/15 10:25:46;;;;;;;2.05;1.35;;;16.90;64.90;;;;;;10462851;28;20025;-54
2022/04/15 10:31:11;;;;;;;1.90;1.50;;;16.90;64.90;;;;;;10453280;28;20386;-53
2022/04/15 10:36:13;;;;;;;1.90;1.30;;;16.80;64.80;;;;;;10454093;28;20033;-52
2022/04/15 10:41:16;;;;;;;1.80;1.23;;;16.80;64.90;;;;;;10453597;28;20017;-54
2022/04/15 10:46:17;;;;;;;2.95;1.48;;;16.80;65.00;;;;;;10453355;28;20029;-54
2022/04/15 10:51:24;;;;;;;1.80;1.15;;;16.80;65.00;;;;;;10454044;28;20056;-54
2022/04/15 10:56:25;;;;;;;2.40;1.80;;;16.80;65.10;;;;;;10452241;28;20033;-55
2022/04/15 11:01:25;;;;;;;1.58;1.33;;;16.80;65.00;;;;;;10451798;28;20104;-53
2022/04/15 11:06:28;;;;;;;2.10;1.45;;;16.80;65.10;;;;;;10453132;28;20111;-54
2022/04/15 11:11:35;;;;;;;1.60;1.50;;;16.80;65.00;;;;;;10453069;28;20575;-55
2022/04/15 11:16:48;;;;;;;1.75;1.52;;;16.90;64.80;;;;;;10452767;28;20112;-56
2022/04/15 11:21:50;;;;;;;1.20;1.10;;;16.90;64.70;;;;;;10463139;28;20020;-52
2022/04/15 11:27:03;;;;;;;2.65;1.40;;;16.90;64.70;;;;;;10452956;28;20036;-55
2022/04/15 11:32:06;;;;;;;3.03;1.42;;;16.90;64.70;;;;;;10452534;28;20048;-54
2022/04/15 11:37:09;;;;;;;1.85;1.20;;;16.90;64.60;;;;;;10452112;28;20029;-54
2022/04/15 11:42:13;;;;;;;2.15;1.55;;;16.90;64.70;;;;;;10451369;28;20029;-54
2022/04/15 11:47:16;;;;;;;2.97;1.58;;;16.90;64.60;;;;;;10459877;28;20036;-55
2022/04/15 11:52:25;;;;;;;2.72;1.35;;;17.00;64.60;;;;;;10459594;28;20029;-55
2022/04/15 11:57:29;;;;;;;2.70;1.40;;;16.90;64.50;;;;;;10459670;28;20071;-55
2022/04/15 12:02:31;;;;;;;2.70;1.40;;;16.90;64.70;;;;;;10458186;28;20427;-54
2022/04/15 12:07:32;;;;;;;1.48;1.20;;;16.90;64.80;;;;;;10458097;28;20036;-55
2022/04/15 12:12:32;;;;;;;2.20;1.40;;;16.90;64.80;;;;;;10458925;28;20458;-54
2022/04/15 12:17:33;;;;;;;2.78;1.65;;;16.80;64.70;;;;;;10458600;28;20032;-55
2022/04/15 12:22:36;;;;;;;1.88;1.60;;;16.80;64.80;;;;;;10468230;28;20061;-55
2022/04/15 12:27:37;;;;;;;2.63;1.27;;;16.80;64.80;;;;;;10458090;28;20067;-52
2022/04/15 12:32:39;;;;;;;2.00;1.35;;;16.80;64.80;;;;;;10458027;28;20025;-54
2022/04/15 12:37:53;;;;;;;3.67;1.30;;;16.80;64.90;;;;;;10458035;28;20488;-54
2022/04/15 12:42:54;;;;;;;2.47;1.33;;;16.80;64.80;;;;;;10456476;28;20381;-54
2022/04/15 12:48:03;;;;;;;2.55;1.75;;;16.80;64.80;;;;;;10457425;28;20120;-54
2022/04/15 12:53:22;;;;;;;1.70;1.38;;;16.80;64.90;;;;;;10457149;28;20025;-54
2022/04/15 12:58:28;;;;;;;2.45;1.58;;;16.80;64.90;;;;;;10456109;28;20063;-52
2022/04/15 13:03:34;;;;;;;2.20;1.48;;;16.80;65.00;;;;;;10456907;28;20059;-52
2022/04/15 13:08:35;;;;;;;2.95;1.48;;;16.80;65.00;;;;;;10456150;28;20037;-54
2022/04/15 13:13:37;;;;;;;2.25;1.67;;;16.80;65.00;;;;;;10456361;28;20108;-54
2022/04/15 13:18:38;;;;;;;4.55;1.60;;;16.80;65.10;;;;;;10456148;28;20032;-55
2022/04/15 13:23:39;;;;;;;2.53;1.85;;;16.80;65.00;;;;;;10466814;28;20478;-55
2022/04/15 13:28:42;;;;;;;2.75;1.67;;;16.80;65.00;;;;;;10456168;28;20060;-53
2022/04/15 13:33:43;;;;;;;2.67;1.77;;;16.80;65.00;;;;;;10455906;28;20101;-55
2022/04/15 13:38:44;;;;;;;2.65;1.65;;;16.80;65.00;;;;;;10455516;28;20055;-53
2022/04/15 13:43:45;;;;;;;1.90;1.40;;;16.80;64.90;;;;;;10455340;28;20028;-54
2022/04/15 13:48:46;;;;;;;2.22;1.85;;;16.80;64.90;;;;;;10455242;28;20342;-54
2022/04/15 13:59:10;;;;;;;1.87;1.33;;;16.80;64.90;;;;;;10454980;28;20111;-51
2022/04/15 14:04:16;;;;;;;1.90;1.60;;;16.80;65.00;;;;;;10454605;28;20489;-54
2022/04/15 14:09:19;;;;;;;2.22;1.52;;;16.80;64.90;;;;;;10454351;28;20029;-53
2022/04/15 14:14:20;;;;;;;3.15;1.92;;;16.80;64.90;;;;;;10454278;28;20029;-52
2022/04/15 14:19:20;;;;;;;2.58;1.67;;;16.80;65.00;;;;;;10452880;28;20102;-53
2022/04/15 14:24:22;;;;;;;1.85;1.30;;;16.80;64.90;;;;;;10464863;28;20033;-54
2022/04/15 14:29:23;;;;;;;2.90;1.85;;;16.80;64.90;;;;;;10452465;28;20045;-52
2022/04/15 14:34:24;;;;;;;1.83;1.38;;;16.80;64.90;;;;;;10453851;28;20456;-52
2022/04/15 14:39:25;;;;;;;1.92;1.42;;;16.80;64.90;;;;;;10452255;28;20056;-53
2022/04/15 14:44:25;;;;;;;2.00;1.40;;;16.80;64.90;;;;;;10453035;28;20104;-52
2022/04/15 14:49:26;;;;;;;1.88;1.48;;;16.80;65.00;;;;;;10453249;28;20104;-54
2022/04/15 14:54:29;;;;;;;2.10;1.65;;;16.80;65.00;;;;;;10453098;28;20068;-55
2022/04/15 14:59:29;;;;;;;1.85;1.40;;;16.80;65.00;;;;;;10453555;28;20020;-54
2022/04/15 15:04:30;;;;;;;1.48;1.38;;;16.80;65.00;;;;;;10453210;28;20076;-54
2022/04/15 15:09:30;;;;;;;2.10;1.65;;;16.80;65.00;;;;;;10451794;28;20106;-54
2022/04/15 15:14:31;;;;;;;2.58;1.63;;;16.80;64.80;;;;;;10451627;28;20108;-54
2022/04/15 15:19:32;;;;;;;2.03;1.50;;;16.80;64.70;;;;;;10456722;28;20098;-52
2022/04/15 15:29:52;;;;;;;1.87;1.40;;;16.90;64.70;;;;;;10460550;28;20041;-53
2022/04/15 15:34:53;;;;;;;1.83;1.20;;;16.80;64.70;;;;;;10460452;28;20103;-54
2022/04/15 15:39:55;;;;;;;1.63;1.30;;;16.80;64.70;;;;;;10460280;28;20110;-52
2022/04/15 15:44:55;;;;;;;2.20;1.63;;;16.80;64.70;;;;;;10459930;28;20061;-54
2022/04/15 15:49:56;;;;;;;2.10;1.70;;;16.80;64.70;;;;;;10459934;28;20488;-54
2022/04/15 15:54:57;;;;;;;1.65;1.30;;;16.80;64.70;;;;;;10459668;28;20068;-52
2022/04/15 15:59:57;;;;;;;1.90;1.45;;;16.80;64.70;;;;;;10458039;28;20086;-54
2022/04/15 16:04:58;;;;;;;1.83;1.15;;;16.80;64.70;;;;;;10459210;28;20032;-52
2022/04/15 16:09:59;;;;;;;2.03;1.30;;;16.80;64.80;;;;;;10459275;28;20053;-54
2022/04/15 16:15:00;;;;;;;1.85;1.40;;;16.70;64.70;;;;;;10457434;28;20564;-54
2022/04/15 16:20:03;;;;;;;1.63;1.10;;;16.70;64.80;;;;;;10455375;28;20064;-53
2022/04/15 16:25:05;;;;;;;1.40;1.20;;;16.80;64.80;;;;;;10467494;28;20029;-51
2022/04/15 16:30:07;;;;;;;1.85;1.23;;;16.80;64.70;;;;;;10462622;28;20071;-52
2022/04/15 16:35:08;;;;;;;2.25;1.75;;;16.90;66.30;;;;;;10458102;28;20029;-52
2022/04/15 16:40:09;;;;;;;2.33;1.92;;;17.00;66.20;;;;;;10463204;28;20017;-51
2022/04/15 16:45:12;;;;;;;2.45;1.80;;;17.00;66.10;;;;;;10458970;28;20481;-52
2022/04/15 16:50:16;;;;;;;2.05;1.67;;;17.10;65.60;;;;;;10456800;28;20060;-52
2022/04/15 17:00:35;;;;;;;1.53;1.20;;;17.00;65.60;;;;;;10457208;28;20056;-49
2022/04/15 17:05:40;;;;;;;2.53;1.67;;;17.00;65.30;;;;;;10437984;28;20033;-52
2022/04/15 17:10:41;;;;;;;1.73;1.25;;;16.90;65.20;;;;;;10456324;28;20029;-52
2022/04/15 17:15:42;;;;;;;1.95;1.50;;;16.90;65.10;;;;;;10456287;28;20482;-54
2022/04/15 17:20:43;;;;;;;2.08;1.40;;;16.90;65.10;;;;;;10457814;28;20043;-52
2022/04/15 17:25:45;;;;;;;2.10;1.45;;;16.90;65.10;;;;;;10456712;28;20025;-52
2022/04/15 17:30:50;;;;;;;2.17;1.55;;;16.90;65.00;;;;;;10455579;28;20132;-51
2022/04/15 17:35:51;;;;;;;1.67;1.30;;;16.80;64.90;;;;;;10454992;28;20048;-50
2022/04/15 17:40:53;;;;;;;2.17;1.50;;;16.80;64.80;;;;;;10454385;28;20029;-52
2022/04/15 17:45:57;;;;;;;2.08;1.73;;;16.90;64.70;;;;;;10455351;28;20053;-54
2022/04/15 17:50:58;;;;;;;1.63;1.20;;;16.90;64.50;;;;;;10459798;28;20117;-52
2022/04/15 17:55:58;;;;;;;2.10;1.23;;;16.90;64.30;;;;;;10472437;28;20025;-54
2022/04/15 18:00:59;;;;;;;7.45;1.65;;;17.00;64.30;;;;;;10488033;28;20021;-52
2022/04/15 18:06:00;;;;;;;3.53;1.45;;;17.00;64.50;;;;;;10470953;28;20496;-51
2022/04/15 18:11:00;;;;;;;3.78;1.63;;;16.90;64.50;;;;;;10480495;28;20516;-50
2022/04/15 18:16:01;;;;;;;2.92;1.70;;;16.90;64.40;;;;;;10457795;28;20492;-53
2022/04/15 18:21:02;;;;;;;2.92;1.80;;;17.00;64.30;;;;;;10464099;28;20488;-54
2022/04/15 18:26:05;;;;;;;6.47;2.00;;;17.10;64.10;;;;;;10459460;28;20060;-56
2022/04/15 18:31:06;;;;;;;3.75;2.20;;;17.30;63.80;;;;;;10454570;28;20044;-56
2022/04/15 18:36:07;;;;;;;4.53;2.45;;;17.40;64.10;;;;;;10454165;28;20025;-53
2022/04/15 18:41:07;;;;;;;4.60;2.50;;;17.40;64.20;;;;;;10454125;28;20056;-51
2022/04/15 18:46:08;;;;;;;3.95;2.10;;;17.40;64.40;;;;;;10447290;28;20071;-53
2022/04/15 18:56:30;;;;;;;3.92;2.20;;;17.40;65.10;;;;;;10460626;28;20132;-53
2022/04/15 19:01:30;;;;;;;5.05;2.63;;;17.30;65.20;;;;;;10461510;28;20033;-53
2022/04/15 19:06:31;;;;;;;5.05;2.70;;;17.30;65.50;;;;;;10459903;28;20055;-53
2022/04/15 19:11:32;;;;;;;3.70;2.25;;;17.30;65.50;;;;;;10477465;28;20488;-54
2022/04/15 19:16:33;;;;;;;4.35;2.70;;;17.20;65.30;;;;;;10463391;28;20358;-54
2022/04/15 19:21:34;;;;;;;5.45;2.90;;;17.20;65.60;;;;;;10459997;28;20021;-57
2022/04/15 19:26:35;;;;;;;4.60;2.72;;;17.20;65.60;;;;;;10466792;28;20044;-57
2022/04/15 19:31:36;;;;;;;7.72;3.00;;;17.10;65.70;;;;;;10467006;28;20044;-57
2022/04/15 19:36:37;;;;;;;3.53;2.58;;;17.00;65.80;;;;;;10460402;28;20166;-57
2022/04/15 19:41:38;;;;;;;4.57;2.65;;;17.00;65.80;;;;;;10460681;28;20075;-56
2022/04/15 19:46:39;;;;;;;3.97;2.55;;;17.00;65.80;;;;;;10458443;28;20131;-56
2022/04/15 19:51:42;;;;;;;3.67;2.40;;;16.90;65.90;;;;;;10474687;28;20036;-56
2022/04/15 20:02:03;;;;;;;3.03;2.33;;;16.90;66.00;;;;;;10459473;28;20029;-56
2022/04/15 20:07:04;;;;;;;3.05;2.08;;;16.90;66.00;;;;;;10457700;28;20024;-56
2022/04/15 20:12:05;;;;;;;3.00;2.42;;;16.80;66.00;;;;;;10456733;28;20036;-56
2022/04/15 20:17:06;;;;;;;3.53;2.25;;;16.80;66.00;;;;;;10457697;28;20025;-56
2022/04/15 20:22:07;;;;;;;3.38;2.72;;;16.90;65.80;;;;;;10467543;28;20037;-56
2022/04/15 20:27:07;;;;;;;3.55;2.70;;;16.90;65.60;;;;;;10456158;28;20067;-57
2022/04/15 20:32:08;;;;;;;3.85;2.55;;;16.90;65.60;;;;;;10454894;28;20615;-56
2022/04/15 20:37:09;;;;;;;2.83;2.20;;;16.90;65.60;;;;;;10457774;28;20037;-56
2022/04/15 20:42:10;;;;;;;4.55;2.50;;;16.90;65.60;;;;;;10458393;28;20033;-56
2022/04/15 20:47:10;;;;;;;3.30;2.35;;;16.90;65.50;;;;;;10458241;28;20105;-56
2022/04/15 20:52:11;;;;;;;2.97;2.22;;;17.00;65.10;;;;;;10458208;28;20110;-57
2022/04/15 20:57:12;;;;;;;3.28;2.63;;;17.00;65.00;;;;;;10457874;28;20044;-55
2022/04/15 21:02:13;;;;;;;2.75;1.85;;;17.00;65.00;;;;;;10457800;28;20096;-56
2022/04/15 21:07:13;;;;;;;2.85;1.80;;;17.00;65.10;;;;;;10457486;28;20061;-56
2022/04/15 21:12:15;;;;;;;5.45;2.25;;;17.00;65.80;;;;;;10455852;28;20140;-55
2022/04/15 21:17:15;;;;;;;2.75;2.20;;;16.90;65.10;;;;;;10456673;28;20036;-56
2022/04/15 21:22:16;;;;;;;3.35;2.38;;;16.90;65.30;;;;;;10467990;28;20048;-56
2022/04/15 21:27:17;;;;;;;3.25;2.03;;;16.90;65.40;;;;;;10455236;28;20488;-56
2022/04/15 21:32:19;;;;;;;3.25;2.10;;;16.90;65.00;;;;;;10456154;28;20132;-57
2022/04/15 21:37:19;;;;;;;3.10;1.80;;;16.90;64.90;;;;;;10455985;28;20040;-57
2022/04/15 21:42:20;;;;;;;2.10;1.65;;;17.10;64.60;;;;;;10455994;28;20029;-56
2022/04/15 21:47:21;;;;;;;3.17;1.90;;;17.10;64.30;;;;;;10455742;28;20104;-57
2022/04/15 21:52:31;;;;;;;2.58;2.10;;;17.10;64.30;;;;;;10455760;28;20493;-57
2022/04/15 21:57:32;;;;;;;2.75;1.90;;;17.10;64.30;;;;;;10455170;28;20397;-58
2022/04/15 22:02:33;;;;;;;3.92;2.22;;;17.10;64.40;;;;;;10454233;28;20377;-57
2022/04/15 22:07:34;;;;;;;2.35;1.52;;;17.10;64.30;;;;;;10454430;28;20071;-57
2022/04/15 22:12:34;;;;;;;3.58;1.92;;;17.10;64.20;;;;;;10453832;28;20432;-56
2022/04/15 22:17:35;;;;;;;2.33;1.85;;;17.10;64.30;;;;;;10453317;28;20149;-57
2022/04/15 22:22:36;;;;;;;2.58;2.00;;;17.10;64.40;;;;;;10463652;28;20068;-56
2022/04/15 22:27:37;;;;;;;3.13;1.75;;;17.00;64.40;;;;;;10453856;28;20041;-57
2022/04/15 22:32:37;;;;;;;3.25;1.80;;;17.00;64.50;;;;;;10453262;28;20028;-56
2022/04/15 22:37:40;;;;;;;2.78;1.60;;;16.90;64.60;;;;;;10451649;28;20120;-56
2022/04/15 22:42:42;;;;;;;2.63;2.10;;;16.90;64.60;;;;;;10454398;28;20032;-57
2022/04/15 22:47:48;;;;;;;2.47;1.90;;;16.90;64.60;;;;;;10454064;28;20072;-57
2022/04/15 22:52:49;;;;;;;2.78;1.77;;;16.90;64.60;;;;;;10452574;28;20036;-57
2022/04/15 22:57:50;;;;;;;2.95;1.90;;;16.90;64.60;;;;;;10453534;28;20115;-57
2022/04/15 23:02:50;;;;;;;2.35;1.77;;;16.90;64.70;;;;;;10454005;28;20056;-56
2022/04/15 23:07:54;;;;;;;2.17;1.85;;;16.80;64.70;;;;;;10452964;28;20123;-56
2022/04/15 23:12:55;;;;;;;3.35;2.53;;;16.90;64.60;;;;;;10453772;28;20029;-57
2022/04/15 23:17:57;;;;;;;2.92;1.77;;;16.90;64.20;;;;;;10453434;28;20044;-56
2022/04/15 23:23:00;;;;;;;3.28;1.70;;;17.00;64.00;;;;;;10464061;28;20469;-57
2022/04/15 23:28:01;;;;;;;2.53;1.60;;;17.00;64.00;;;;;;10453221;28;20052;-56
2022/04/15 23:33:02;;;;;;;3.00;2.15;;;17.00;64.10;;;;;;10451986;28;20031;-57
2022/04/15 23:38:02;;;;;;;2.60;2.25;;;17.10;63.80;;;;;;10452985;28;20366;-56
2022/04/15 23:43:03;;;;;;;4.05;2.28;;;17.10;63.70;;;;;;10459495;28;20025;-56
2022/04/15 23:53:23;;;;;;;2.10;1.63;;;17.10;63.90;;;;;;10459674;28;20036;-57
2022/04/15 23:58:24;;;;;;;2.30;1.80;;;17.00;63.90;;;;;;10459943;28;20064;-57
